x

Shumagin Islands - 85nm South Of Sand Point, Ak (46075) Wave Buoy

7:50 - Tue 3rd Mar 2015 All times are UTC.

  • Sig Wave height 7.9ft
  • Peak Period 14s
  • Average Period 7s
  • Wind
    13mph, 16mph gusts
  • Sea Temp 43°f
  • Air Temp 41°f
  • Sea Pressure 1010.2mb

More Historic Weather Station data

Upgrade to MSW Pro to gain access to the past 30 days of data for over 8000 Wavebouys and Weather Stations around the globe.

Join Pro

Comparision Forecast

View Surf forecast
   
mar. 03/03 7:50 8ft 14s 7s 13 16 mph 1010.2mb 43f 41f
6:50 8ft 14s 8s 13 18 mph 1010.1mb 42f 41f
5:50 8ft 13s 7s 16 20 mph 1009.5mb 42f 40f
4:50 8ft 14s 7s 18 22 mph 1008.9mb 42f 41f
3:50 8ft 14s 6s 16 20 mph 1007.9mb 42f 42f
2:50 8ft 14s 6s 20 27 mph 1007.2mb 42f 42f
1:50 8.5ft 14s 7s 20 25 mph 1006.8mb 42f 41f
12:50 7.5ft 14s 6s 20 25 mph 1006.2mb 42f 41f
lun. 03/02 11:50 7ft 14s 6s 25 29 mph 1005.8mb 42f 41f
10:50 6ft 15s 7s 20 25 mph 1005.5mb 42f 40f
9:50 6.5ft 15s 7s 20 22 mph 1005mb 42f 41f
8:50 5.5ft 10s 6s 18 22 mph 1004.9mb 42f 41f
7:50 5.5ft 15s 7s 13 18 mph 1004.7mb 42f 42f
6:50 6ft 10s 7s 13 16 mph 1004.5mb 42f 42f
5:50 5.5ft 10s 6s 9 11 mph 1004.4mb 42f 41f
4:50 5.5ft 10s 6s 7
mph
1004.8mb 42f 41f
3:50 5ft 9s 6s 4 7 mph 1005.2mb 42f 41f
2:50 5ft 9s 5s 2 4 mph 1005.9mb 42f 41f
1:50 5ft 9s 5s 4 7 mph 1006.7mb 42f 41f
12:50 6ft 10s 6s 7 9 mph 1007.7mb 42f 41f
11:50 6ft 9s 6s 11
mph
1008.7mb 42f 41f
10:50 6ft 9s 6s 11 13 mph 1009.4mb 42f 42f
9:50 7ft 9s 6s 13 16 mph 1010.2mb 42f 42f
8:50 6.5ft 9s 5s 18 20 mph 1011.1mb 42f 42f
7:50 7.5ft 9s 6s 18 22 mph 1011.9mb 42f 42f
6:50 7ft 9s 5s 18 22 mph 1012.5mb 42f 42f
5:50 6ft 6s 5s 16 20 mph 1013.6mb 42f 42f
4:50 6ft 6s 5s 20 22 mph 1013.7mb 42f 42f
3:50 6ft 6s 5s 18 22 mph 1014.5mb 42f 42f
2:50 6ft 6s 5s 20 22 mph 1015.1mb 42f 42f
1:50 6ft 5s 5s 20 25 mph 1016.1mb 42f 42f
12:50 5.5ft 6s 5s 22 25 mph 1017mb 42f 42f
dim. 03/01 11:50 5.5ft 5s 4s 22 27 mph 1017.5mb 42f 42f
10:50 5.5ft 5s 4s 22 27 mph 1018.5mb 42f 42f
9:50 5ft 6s 4s 22 25 mph 1019.6mb 42f 42f
8:50 5.5ft 5s 4s 25 27 mph 1020.3mb 42f 42f
7:50 5ft 5s 4s 25 27 mph 1020.8mb 42f 42f
6:50 5ft 5s 4s 25 29 mph 1021.3mb 42f 42f
5:50 5ft 5s 4s 20 25 mph 1021.9mb 42f 42f
4:50 4.5ft 4s 4s 20 25 mph 1022.4mb 42f 41f
3:50 5ft 5s 4s 20 22 mph 1022.9mb 42f 42f
2:50 5ft 5s 4s 18 22 mph 1023.3mb 42f 42f
1:50 5.5ft 7s 5s 18 22 mph 1024.2mb 42f 41f
12:50 6ft 5s 5s 20 25 mph 1024.8mb 42f 41f
11:50 5.5ft 5s 5s 20 25 mph 1025.4mb 42f 41f
10:50 5ft 5s 5s 20 25 mph 1025.8mb 42f 41f
9:50 6ft 5s 5s 22 27 mph 1026mb 42f 41f
8:50 5ft 5s 5s 20 25 mph 1026.2mb 42f 41f
7:50 5ft 5s 5s 20 25 mph 1026.1mb 42f 40f
6:50 5ft 8s 4s 20 27 mph 1025.8mb 42f 41f
5:50 6ft 8s 5s 20 22 mph 1025.9mb 42f 40f
4:50 5.5ft 11s 5s 18 22 mph 1026mb 42f 40f
3:50 5ft 11s 5s 18 22 mph 1025.2mb 42f 40f
2:50 5ft 11s 6s 18 20 mph 1024.7mb 42f 42f
1:50 5ft 8s 6s 18 20 mph 1024.8mb 42f 43f
12:50 5.5ft 8s 7s 13 18 mph 1024.8mb 42f 44f
sam. 02/28 11:50 5ft 11s 6s 13 16 mph 1025.2mb 42f 44f
10:50 6.5ft 11s 7s 13 16 mph 1025.9mb 42f 42f
9:50 6ft 11s 7s 13 18 mph 1025.8mb 42f 42f
8:50 6ft 11s 7s 13 16 mph 1024.7mb 42f 42f
7:50 6ft 11s 7s 11 13 mph 1024.5mb 42f 41f
6:50 7ft 11s 7s 13 18 mph 1023.7mb 42f 41f
5:50 7ft 11s 7s 13 18 mph 1023mb 42f 41f
4:50 7ft 12s 7s 11 16 mph 1022.5mb 42f 41f
3:50 7ft 11s 7s 11 13 mph 1022.1mb 42f 41f
2:50 7.5ft 11s 8s 13 16 mph 1021.7mb 42f 41f
1:50 7ft 11s 7s 9
mph
1021.1mb 42f 41f
12:50 7ft 11s 7s 4 7 mph 1020.9mb 42f 42f
11:50 7.5ft 12s 8s 4
mph
1020.2mb 42f 41f
10:50 7ft 11s 7s 4 7 mph 1019.5mb 42f 41f
9:50 7ft 11s 7s 4 7 mph 1019.4mb 42f 41f
8:50 7ft 12s 7s 4 7 mph 1019.4mb 42f 41f
7:50 7ft 12s 7s 7
mph
1019mb 42f 41f
6:50 7ft 11s 7s 7 9 mph 1018.3mb 42f 41f
5:50 6.5ft 12s 7s 4 7 mph 1018.1mb 42f 41f
4:50 7ft 12s 7s 7 9 mph 1017.5mb 42f 41f
3:50 7ft 8s 7s 7 9 mph 1017.2mb 42f 42f
2:50 7ft 9s 6s 7 9 mph 1016.9mb 42f 42f
1:50 7ft 8s 6s 9 11 mph 1016.8mb 42f 42f
12:50 7.5ft 8s 6s 11 13 mph 1016.9mb 42f 41f
ven. 02/27 11:50 8ft 11s 6s 13 16 mph 1017.1mb 42f 42f
10:50 8ft 11s 6s 16 18 mph 1017.4mb 42f 42f
9:50 8ft 8s 6s 16 20 mph 1018mb 42f 42f
8:50 8.5ft 8s 6s 18 22 mph 1018.1mb 42f 41f
7:50 8ft 8s 6s 18 25 mph 1018.6mb 42f 41f
6:50 8ft 8s 5s 20 27 mph 1018.8mb 42f 40f
5:50 8ft 7s 5s 25 29 mph 1019.3mb 42f 40f
4:50 7ft 7s 5s 25 29 mph 1019.9mb 42f 40f
3:50 8ft 7s 5s 25 29 mph 1020.7mb 42f 40f
2:50 8ft 7s 5s 25 31 mph 1021.8mb 42f 40f
1:50 7.5ft 7s 5s 25 29 mph 1022.5mb 42f 40f
12:50 8ft 6s 5s 25 31 mph 1023.4mb 42f 39f
11:50 7ft 6s 5s 25 31 mph 1024.3mb 42f 39f
10:50 7.5ft 6s 5s 25 29 mph 1025.3mb 42f 40f
9:50 7ft 6s 5s 27 31 mph 1026.4mb 42f 40f
8:50 6ft 5s 5s 25 31 mph 1027.1mb 42f 40f